Time;durP1;ratioP1;P1;durP2;ratioP2;P2;SDS_P1;SDS_P2;PMS_P1;PMS_P2;Temp;Humidity;BMP_temperature;BMP_pressure;BME280_temperature;BME280_humidity;BME280_pressure;Samples;Min_cycle;Max_cycle;Signal;HPM_P1;HPM_P2
2022/12/21 00:01:56;;;;;;;93.00;20.05;;;;;;;0.01;0.00;59042.03;5036666;28;22332;-54
2022/12/21 00:04:22;;;;;;;99.32;21.42;;;;;;;0.01;0.00;59042.03;5038443;28;20441;-52
2022/12/21 00:06:48;;;;;;;104.32;20.73;;;;;;;0.01;0.00;59042.03;5037572;28;20187;-52
2022/12/21 00:09:14;;;;;;;101.97;21.05;;;;;;;0.01;0.00;59042.03;5040220;28;20596;-54
2022/12/21 00:11:40;;;;;;;86.93;20.38;;;;;;;0.01;0.00;59042.03;5038315;28;20466;-55
2022/12/21 00:14:06;;;;;;;112.40;22.08;;;;;;;0.01;0.00;59042.03;5039956;28;21025;-52
2022/12/21 00:16:34;;;;;;;81.35;18.58;;;;;;;0.01;0.00;59042.03;5039440;28;20029;-52
2022/12/21 00:19:00;;;;;;;104.10;22.08;;;;;;;0.01;0.00;59042.03;5039475;28;20607;-53
2022/12/21 00:21:44;;;;;;;91.18;19.55;;;;;;;0.01;0.00;59042.03;5038180;28;20065;-52
2022/12/21 00:24:10;;;;;;;98.32;20.23;;;;;;;0.01;0.00;59042.03;5039474;28;20136;-53
2022/12/21 00:26:37;;;;;;;106.20;21.80;;;;;;;0.01;0.00;59042.03;5039200;28;20702;-53
2022/12/21 00:29:03;;;;;;;100.45;21.95;;;;;;;0.01;0.00;59042.03;5039609;28;20120;-55
2022/12/21 00:31:34;;;;;;;104.10;21.80;;;;;;;0.01;0.00;59042.03;5037503;28;20040;-53
2022/12/21 00:34:01;;;;;;;102.00;21.13;;;;;;;0.01;0.00;59042.03;5039011;28;20072;-52
2022/12/21 00:36:28;;;;;;;99.97;22.30;;;;;;;0.01;0.00;59042.03;5038517;28;20557;-53
2022/12/21 00:38:54;;;;;;;65.95;15.63;;;;;;;0.01;0.00;59042.03;5039949;28;20029;-52
2022/12/21 00:41:21;;;;;;;61.05;11.80;;;;;;;0.01;0.00;59042.03;5037417;28;20041;-52
2022/12/21 00:43:49;;;;;;;79.63;14.93;;;;;;;0.01;0.00;59042.03;5039623;28;20025;-55
2022/12/21 00:46:21;;;;;;;70.30;14.82;;;;;;;0.01;0.00;59042.03;5038250;28;20041;-54
2022/12/21 00:48:47;;;;;;;;;;;;;;;0.01;0.00;59042.03;5012557;28;20028;-56
2022/12/21 00:51:18;;;;;;;65.32;13.50;;;;;;;0.01;0.00;59042.03;5037481;28;19928;-56
2022/12/21 00:53:44;;;;;;;62.88;14.05;;;;;;;0.01;0.00;59042.03;5038513;28;20871;-54
2022/12/21 00:56:10;;;;;;;58.22;11.98;;;;;;;0.01;0.00;59042.03;5038741;28;20045;-53
2022/12/21 00:58:37;;;;;;;66.93;14.60;;;;;;;0.01;0.00;59042.03;5021018;28;20013;-53
2022/12/21 01:01:11;;;;;;;67.88;15.00;;;;;;;0.01;0.00;59042.03;5037828;28;20072;-53
2022/12/21 01:03:37;;;;;;;86.80;17.38;;;;;;;0.01;0.00;59042.03;5038220;28;20036;-53
2022/12/21 01:06:03;;;;;;;61.38;14.73;;;;;;;0.01;0.00;59042.03;5038444;28;20045;-55
2022/12/21 01:08:28;;;;;;;61.38;14.75;;;;;;;0.01;0.00;59042.03;5039206;28;20541;-55
2022/12/21 01:10:59;;;;;;;70.50;15.77;;;;;;;0.01;0.00;59042.03;5038227;28;20136;-54
2022/12/21 01:13:24;;;;;;;57.25;13.40;;;;;;;0.01;0.00;59042.03;5038973;28;20706;-54
2022/12/21 01:15:50;;;;;;;67.00;14.45;;;;;;;0.01;0.00;59042.03;5037493;28;20799;-53
2022/12/21 01:18:15;;;;;;;72.53;14.90;;;;;;;0.01;0.00;59042.03;5038598;28;20083;-54
2022/12/21 01:20:43;;;;;;;93.57;16.08;;;;;;;0.01;0.00;59042.03;5037297;28;20113;-55
2022/12/21 01:23:08;;;;;;;49.83;12.80;;;;;;;0.01;0.00;59042.03;5038274;28;20017;-53
2022/12/21 01:25:34;;;;;;;59.92;14.40;;;;;;;0.01;0.00;59042.03;5038261;28;20036;-52
2022/12/21 01:27:59;;;;;;;70.57;16.75;;;;;;;0.01;0.00;59042.03;5038213;28;20048;-53
2022/12/21 01:30:25;;;;;;;71.32;17.05;;;;;;;0.01;0.00;59042.03;5036803;28;20124;-53
2022/12/21 01:32:50;;;;;;;71.18;15.50;;;;;;;0.01;0.00;59042.03;5036975;28;20536;-52
2022/12/21 01:35:15;;;;;;;71.63;15.02;;;;;;;0.01;0.00;59042.03;5037669;28;20036;-52
2022/12/21 01:37:41;;;;;;;63.55;15.15;;;;;;;0.01;0.00;59042.03;5038556;28;20056;-53
2022/12/21 01:40:07;;;;;;;70.85;14.88;;;;;;;0.01;0.00;59042.03;5021568;28;20052;-53
2022/12/21 01:42:32;;;;;;;70.97;15.90;;;;;;;0.01;0.00;59042.03;5037290;28;20048;-54
2022/12/21 01:45:24;;;;;;;60.42;13.93;;;;;;;0.01;0.00;59042.03;5037962;28;20163;-54
2022/12/21 01:47:57;;;;;;;64.27;14.27;;;;;;;0.01;0.00;59042.03;5037959;28;20044;-53
2022/12/21 01:50:22;;;;;;;63.67;14.10;;;;;;;0.01;0.00;59042.03;5037851;28;20070;-52
2022/12/21 01:52:48;;;;;;;69.55;15.18;;;;;;;0.01;0.00;59042.03;5037066;28;20056;-52
2022/12/21 01:55:14;;;;;;;71.28;15.35;;;;;;;0.01;0.00;59042.03;5037095;28;20079;-53
2022/12/21 01:57:39;;;;;;;70.85;15.90;;;;;;;0.01;0.00;59042.03;5037270;28;20148;-54
2022/12/21 02:00:08;;;;;;;66.72;14.73;;;;;;;0.01;0.00;59042.03;5037919;28;20033;-52
2022/12/21 02:02:39;;;;;;;62.53;15.45;;;;;;;0.01;0.00;59042.03;5036425;28;20123;-53
2022/12/21 02:05:34;;;;;;;66.43;16.48;;;;;;;0.01;0.00;59042.03;5037036;28;20662;-52
2022/12/21 02:08:03;;;;;;;55.67;10.85;;;;;;;0.01;0.00;59042.03;5036525;28;20064;-52
2022/12/21 02:10:28;;;;;;;66.75;15.45;;;;;;;0.01;0.00;59042.03;5036880;28;20037;-55
2022/12/21 02:13:00;;;;;;;51.08;13.88;;;;;;;0.01;0.00;59042.03;5036364;28;20055;-54
2022/12/21 02:15:49;;;;;;;84.80;18.17;;;;;;;0.01;0.00;59042.03;5037160;28;20036;-53
2022/12/21 02:18:17;;;;;;;63.72;15.00;;;;;;;0.01;0.00;59042.03;5026543;28;20037;-55
2022/12/21 02:21:01;;;;;;;81.07;17.08;;;;;;;0.01;0.00;59042.03;5036603;28;20813;-54
2022/12/21 02:23:58;;;;;;;71.32;16.05;;;;;;;0.01;0.00;59042.03;5037629;28;20013;-52
2022/12/21 02:26:41;;;;;;;78.85;17.50;;;;;;;0.01;0.00;59042.03;4999075;28;20048;-52
2022/12/21 02:29:44;;;;;;;70.78;15.13;;;;;;;0.01;0.00;59042.03;5037236;28;20029;-52
2022/12/21 02:32:25;;;;;;;59.20;14.00;;;;;;;0.01;0.00;59042.03;5035833;28;20044;-53
2022/12/21 02:35:28;;;;;;;59.60;14.53;;;;;;;0.01;0.00;59042.03;5038004;28;20111;-53
2022/12/21 02:37:56;;;;;;;;;;;;;;;0.01;0.00;59042.03;5038450;28;20916;-54
2022/12/21 02:40:31;;;;;;;66.60;14.13;;;;;;;0.01;0.00;59042.03;5037074;28;20058;-52
2022/12/21 02:46:16;;;;;;;58.80;12.77;;;;;;;0.01;0.00;59042.03;4974143;28;20034;-52
2022/12/21 02:48:56;;;;;;;73.65;15.35;;;;;;;0.01;0.00;59042.03;5025539;28;20479;-54
2022/12/21 02:51:51;;;;;;;64.47;14.20;;;;;;;0.01;0.00;59042.03;5035370;28;20055;-52
2022/12/21 02:54:17;;;;;;;57.58;13.82;;;;;;;0.01;0.00;59042.03;5037190;28;20033;-52
2022/12/21 02:56:43;;;;;;;73.18;13.55;;;;;;;0.01;0.00;59042.03;5035835;28;20048;-52
2022/12/21 02:59:12;;;;;;;70.63;14.55;;;;;;;0.01;0.00;59042.03;5037322;28;20025;-52
2022/12/21 03:01:55;;;;;;;62.03;12.70;;;;;;;0.01;0.00;59042.03;5035669;28;20036;-52
2022/12/21 03:04:23;;;;;;;58.17;13.13;;;;;;;0.01;0.00;59042.03;5037214;28;20128;-52
2022/12/21 03:07:07;;;;;;;63.35;15.27;;;;;;;0.01;0.00;59042.03;5036168;28;20056;-53
2022/12/21 03:09:32;;;;;;;51.30;11.27;;;;;;;0.01;0.00;59042.03;5040926;28;20083;-53
2022/12/21 03:12:22;;;;;;;70.07;14.05;;;;;;;0.01;0.00;59042.03;5039514;28;20072;-53
2022/12/21 03:15:20;;;;;;;76.70;14.20;;;;;;;0.01;0.00;59042.03;5040654;28;20123;-54
2022/12/21 03:18:02;;;;;;;69.32;15.10;;;;;;;0.01;0.00;59042.03;5040948;28;20100;-52
2022/12/21 03:20:40;;;;;;;71.47;13.70;;;;;;;0.01;0.00;59042.03;5040415;28;20082;-55
2022/12/21 03:23:16;;;;;;;73.22;14.35;;;;;;;0.01;0.00;59042.03;5040061;28;20033;-53
2022/12/21 03:26:05;;;;;;;73.18;14.05;;;;;;;0.01;0.00;59042.03;5040227;28;20098;-53
2022/12/21 03:28:35;;;;;;;63.38;12.93;;;;;;;0.01;0.00;59042.03;5040573;28;20032;-54
2022/12/21 03:31:09;;;;;;;63.40;14.55;;;;;;;0.01;0.00;59042.03;5038943;28;20114;-53
2022/12/21 03:33:40;;;;;;;65.22;13.27;;;;;;;0.01;0.00;59042.03;5040577;28;20060;-55
2022/12/21 03:36:12;;;;;;;70.93;14.23;;;;;;;0.01;0.00;59042.03;5039670;28;20056;-53
2022/12/21 03:38:46;;;;;;;77.15;14.73;;;;;;;0.01;0.00;59042.03;5040870;28;20017;-53
2022/12/21 03:41:21;;;;;;;59.67;13.05;;;;;;;0.01;0.00;59042.03;5039181;28;20060;-55
2022/12/21 03:43:49;;;;;;;61.80;13.70;;;;;;;0.01;0.00;59042.03;5040698;28;20025;-53
2022/12/21 03:46:27;;;;;;;81.18;15.32;;;;;;;0.01;0.00;59042.03;5039889;28;20044;-52
2022/12/21 03:48:57;;;;;;;45.90;11.35;;;;;;;0.01;0.00;59042.03;5040499;28;20113;-53
2022/12/21 03:51:43;;;;;;;52.45;13.38;;;;;;;0.01;0.00;59042.03;5039022;28;20693;-53
2022/12/21 03:54:35;;;;;;;53.45;14.10;;;;;;;0.01;0.00;59042.03;5039981;28;20032;-53
2022/12/21 03:57:00;;;;;;;57.95;13.02;;;;;;;0.01;0.00;59042.03;5038922;28;20048;-55
2022/12/21 03:59:26;;;;;;;52.83;13.27;;;;;;;0.01;0.00;59042.03;5040392;28;20024;-52
2022/12/21 04:02:10;;;;;;;57.22;12.77;;;;;;;0.01;0.00;59042.03;5038465;28;20041;-52
2022/12/21 04:04:48;;;;;;;55.78;10.93;;;;;;;0.01;0.00;59042.03;5039440;28;20700;-53
2022/12/21 04:07:16;;;;;;;58.83;13.32;;;;;;;0.01;0.00;59042.03;5039378;28;20099;-55
2022/12/21 04:09:42;;;;;;;63.92;14.07;;;;;;;0.01;0.00;59042.03;5039966;28;20052;-52
2022/12/21 04:15:12;;;;;;;50.80;11.43;;;;;;;0.01;0.00;59042.03;4958041;28;20054;-55
2022/12/21 04:17:39;;;;;;;60.63;13.02;;;;;;;0.01;0.00;59042.03;4958729;28;20034;-54
2022/12/21 04:20:07;;;;;;;64.25;13.52;;;;;;;0.01;0.00;59042.03;4995010;28;20569;-53
2022/12/21 04:28:08;;;;;;;71.38;13.40;;;;;;;0.01;0.00;59042.03;5039979;28;20052;-53
2022/12/21 04:30:39;;;;;;;89.15;14.45;;;;;;;0.01;0.00;59042.03;5038117;28;20602;-52
2022/12/21 04:33:06;;;;;;;71.85;14.93;;;;;;;0.01;0.00;59042.03;5038765;28;20732;-53
2022/12/21 04:35:31;;;;;;;66.75;13.48;;;;;;;0.01;0.00;59042.03;5039259;28;20120;-54
2022/12/21 04:37:57;;;;;;;60.22;13.43;;;;;;;0.01;0.00;59042.03;5039066;28;20027;-54
2022/12/21 04:40:22;;;;;;;71.05;14.07;;;;;;;0.01;0.00;59042.03;5039187;28;20208;-54
2022/12/21 04:42:47;;;;;;;85.45;13.75;;;;;;;0.01;0.00;59042.03;5038398;28;20017;-52
2022/12/21 04:45:13;;;;;;;75.85;15.13;;;;;;;0.01;0.00;59042.03;5039082;28;20124;-53
2022/12/21 04:47:38;;;;;;;83.88;14.13;;;;;;;0.01;0.00;59042.03;5039573;28;20044;-53
2022/12/21 04:50:05;;;;;;;74.63;13.85;;;;;;;0.01;0.00;59042.03;5039296;28;20128;-52
2022/12/21 04:52:31;;;;;;;54.53;13.60;;;;;;;0.01;0.00;59042.03;5037919;28;20507;-53
2022/12/21 04:54:56;;;;;;;58.92;13.02;;;;;;;0.01;0.00;59042.03;5039415;28;20044;-54
2022/12/21 04:57:22;;;;;;;52.78;11.65;;;;;;;0.01;0.00;59042.03;5038405;28;20037;-53
2022/12/21 04:59:47;;;;;;;71.60;14.02;;;;;;;0.01;0.00;59042.03;5039233;28;20179;-53
2022/12/21 05:02:13;;;;;;;63.35;13.48;;;;;;;0.01;0.00;59042.03;5037235;28;20051;-53
2022/12/21 05:04:38;;;;;;;77.97;15.07;;;;;;;0.01;0.00;59042.03;5038497;28;20028;-53
2022/12/21 05:07:04;;;;;;;60.90;13.70;;;;;;;0.01;0.00;59042.03;5038488;28;20045;-53
2022/12/21 05:09:29;;;;;;;65.18;13.18;;;;;;;0.01;0.00;59042.03;5039267;28;20017;-53
2022/12/21 05:11:55;;;;;;;61.00;12.38;;;;;;;0.01;0.00;59042.03;5037645;28;20112;-54
2022/12/21 05:14:21;;;;;;;60.08;12.70;;;;;;;0.01;0.00;59042.03;5038543;28;20029;-52
2022/12/21 05:16:47;;;;;;;53.15;12.50;;;;;;;0.01;0.00;59042.03;5038246;28;20045;-53
2022/12/21 05:19:13;;;;;;;60.38;12.68;;;;;;;0.01;0.00;59042.03;5038824;28;20039;-52
2022/12/21 05:21:38;;;;;;;72.07;14.20;;;;;;;0.01;0.00;59042.03;5036793;28;20230;-55
2022/12/21 05:24:04;;;;;;;57.17;12.57;;;;;;;0.01;0.00;59042.03;5038459;28;20036;-52
2022/12/21 05:26:30;;;;;;;60.38;12.98;;;;;;;0.01;0.00;59042.03;5037826;28;20041;-53
2022/12/21 05:28:55;;;;;;;46.85;12.05;;;;;;;0.01;0.00;59042.03;5038674;28;20033;-53
2022/12/21 05:31:20;;;;;;;53.33;11.38;;;;;;;0.01;0.00;59042.03;5037426;28;20041;-53
2022/12/21 05:33:46;;;;;;;67.72;12.40;;;;;;;0.01;0.00;59042.03;5038471;28;20021;-54
2022/12/21 05:36:14;;;;;;;51.15;12.00;;;;;;;0.01;0.00;59042.03;5038107;28;20676;-54
2022/12/21 05:38:40;;;;;;;65.38;12.45;;;;;;;0.01;0.00;59042.03;5037671;28;20067;-53
2022/12/21 05:41:05;;;;;;;56.90;12.40;;;;;;;0.01;0.00;59042.03;5036948;28;20072;-53
2022/12/21 05:43:31;;;;;;;54.30;12.40;;;;;;;0.01;0.00;59042.03;5038832;28;20017;-53
2022/12/21 05:46:05;;;;;;;80.30;13.45;;;;;;;0.01;0.00;59042.03;5037491;28;20061;-54
2022/12/21 05:48:31;;;;;;;49.67;12.18;;;;;;;0.01;0.00;59042.03;5036550;28;20091;-53
2022/12/21 05:50:56;;;;;;;71.25;13.95;;;;;;;0.01;0.00;59042.03;5036783;28;20116;-54
2022/12/21 05:53:22;;;;;;;54.75;12.05;;;;;;;0.01;0.00;59042.03;5038022;28;20400;-54
2022/12/21 05:55:47;;;;;;;67.55;13.23;;;;;;;0.01;0.00;59042.03;5037687;28;20029;-54
2022/12/21 05:58:13;;;;;;;62.28;13.07;;;;;;;0.01;0.00;59042.03;5038459;28;20126;-54
2022/12/21 06:00:39;;;;;;;68.97;13.02;;;;;;;0.01;0.00;59042.03;5037345;28;20061;-56
2022/12/21 06:03:05;;;;;;;80.70;14.30;;;;;;;0.01;0.00;59042.03;5037518;28;20130;-55
2022/12/21 06:05:34;;;;;;;61.05;12.63;;;;;;;0.01;0.00;59042.03;5037925;28;20057;-54
2022/12/21 06:07:59;;;;;;;71.85;13.60;;;;;;;0.01;0.00;59042.03;5037983;28;20108;-54
2022/12/21 06:10:26;;;;;;;60.22;13.25;;;;;;;0.01;0.00;59042.03;5037707;28;20130;-52
2022/12/21 06:12:51;;;;;;;65.50;13.55;;;;;;;0.01;0.00;59042.03;5034912;28;20116;-53
2022/12/21 06:15:17;;;;;;;58.30;11.27;;;;;;;0.01;0.00;59042.03;5036885;28;20021;-52
2022/12/21 06:17:42;;;;;;;121.43;14.00;;;;;;;0.01;0.00;59042.03;5037861;28;20024;-55
2022/12/21 06:20:08;;;;;;;77.25;14.55;;;;;;;0.01;0.00;59042.03;5037223;28;20047;-53
2022/12/21 06:22:34;;;;;;;53.88;12.38;;;;;;;0.01;0.00;59042.03;5036768;28;20108;-52
2022/12/21 06:25:00;;;;;;;49.38;10.60;;;;;;;0.01;0.00;59042.03;5037593;28;20021;-54
2022/12/21 06:27:25;;;;;;;61.05;13.70;;;;;;;0.01;0.00;59042.03;5037008;28;20056;-53
2022/12/21 06:29:50;;;;;;;66.10;13.00;;;;;;;0.01;0.00;59042.03;5037810;28;20116;-53
2022/12/21 06:32:16;;;;;;;59.35;11.73;;;;;;;0.01;0.00;59042.03;5035942;28;20076;-54
2022/12/21 06:34:41;;;;;;;58.10;12.55;;;;;;;0.01;0.00;59042.03;5037664;28;20120;-55
2022/12/21 06:37:06;;;;;;;58.63;12.35;;;;;;;0.01;0.00;59042.03;5037504;28;20068;-54
2022/12/21 06:39:32;;;;;;;58.03;11.70;;;;;;;0.01;0.00;59042.03;5037851;28;20426;-53
2022/12/21 06:41:57;;;;;;;49.53;9.70;;;;;;;0.01;0.00;59042.03;5036570;28;20124;-53
2022/12/21 06:44:23;;;;;;;51.20;11.38;;;;;;;0.01;0.00;59042.03;5040693;28;20398;-53
2022/12/21 06:46:48;;;;;;;54.85;11.35;;;;;;;0.01;0.00;59042.03;5041807;28;20039;-53
2022/12/21 06:49:14;;;;;;;51.08;10.75;;;;;;;0.01;0.00;59042.03;5042084;28;20111;-53
2022/12/21 06:51:39;;;;;;;55.85;12.27;;;;;;;0.01;0.00;59042.03;5040608;28;20072;-52
2022/12/21 06:54:04;;;;;;;58.78;12.57;;;;;;;0.01;0.00;59042.03;5042370;28;20650;-56
2022/12/21 06:56:31;;;;;;;66.90;13.23;;;;;;;0.01;0.00;59042.03;5041148;28;20029;-55
2022/12/21 06:58:57;;;;;;;54.13;11.90;;;;;;;0.01;0.00;59042.03;5041910;28;20100;-52
2022/12/21 07:01:31;;;;;;;44.13;11.27;;;;;;;0.01;0.00;59042.03;5039855;28;20041;-52
2022/12/21 07:03:57;;;;;;;55.67;12.60;;;;;;;0.01;0.00;59042.03;5041420;28;20032;-54
2022/12/21 07:06:24;;;;;;;55.45;12.25;;;;;;;0.01;0.00;59042.03;5041244;28;20650;-53
2022/12/21 07:08:50;;;;;;;59.55;14.02;;;;;;;0.01;0.00;59042.03;5040307;28;20029;-55
2022/12/21 07:11:18;;;;;;;68.95;14.23;;;;;;;0.01;0.00;59042.03;5038597;28;20037;-53
2022/12/21 07:13:45;;;;;;;67.00;15.57;;;;;;;0.01;0.00;59042.03;5041109;28;20039;-53
2022/12/21 07:16:12;;;;;;;71.38;15.88;;;;;;;0.01;0.00;59042.03;5040576;28;20056;-53
2022/12/21 07:18:38;;;;;;;53.55;12.73;;;;;;;0.01;0.00;59042.03;5040997;28;20115;-54
2022/12/21 07:21:07;;;;;;;42.70;6.55;;;;;;;0.01;0.00;59042.03;5039372;28;20102;-53
2022/12/21 07:23:35;;;;;;;46.53;10.45;;;;;;;0.01;0.00;59042.03;5041659;28;20025;-54
2022/12/21 07:26:00;;;;;;;50.80;11.70;;;;;;;0.01;0.00;59042.03;5040382;28;20687;-54
2022/12/21 07:28:26;;;;;;;70.85;14.23;;;;;;;0.01;0.00;59042.03;5041322;28;20593;-54
2022/12/21 07:30:53;;;;;;;90.00;15.13;;;;;;;0.01;0.00;59042.03;5039519;28;20457;-53
2022/12/21 07:33:19;;;;;;;43.90;9.82;;;;;;;0.01;0.00;59042.03;5040782;28;20028;-54
2022/12/21 07:35:47;;;;;;;59.35;12.38;;;;;;;0.01;0.00;59042.03;5040413;28;20033;-52
2022/12/21 07:38:12;;;;;;;71.22;18.35;;;;;;;0.01;0.00;59042.03;5040271;28;20036;-52
2022/12/21 07:40:38;;;;;;;67.18;12.52;;;;;;;0.01;0.00;59042.03;5040236;28;20052;-55
2022/12/21 07:43:10;;;;;;;62.58;13.80;;;;;;;0.01;0.00;59042.03;5040186;28;20029;-53
2022/12/21 07:45:39;;;;;;;53.75;11.88;;;;;;;0.01;0.00;59042.03;5039674;28;20037;-53
2022/12/21 07:48:05;;;;;;;50.83;12.70;;;;;;;0.01;0.00;59042.03;5040476;28;20660;-52
2022/12/21 07:50:31;;;;;;;48.47;12.48;;;;;;;0.01;0.00;59042.03;5013663;28;20095;-53
2022/12/21 07:52:58;;;;;;;60.75;13.02;;;;;;;0.01;0.00;59042.03;5039382;28;20136;-53
2022/12/21 07:55:24;;;;;;;69.65;13.05;;;;;;;0.01;0.00;59042.03;5038184;28;20044;-53
2022/12/21 07:57:49;;;;;;;41.78;11.00;;;;;;;0.01;0.00;59042.03;5040798;28;20013;-52
2022/12/21 08:00:15;;;;;;;60.45;12.50;;;;;;;0.01;0.00;59042.03;5039699;28;20064;-52
2022/12/21 08:02:40;;;;;;;56.78;12.35;;;;;;;0.01;0.00;59042.03;5039214;28;20056;-53
2022/12/21 08:05:06;;;;;;;59.45;12.07;;;;;;;0.01;0.00;59042.03;5040189;28;20082;-52
2022/12/21 08:07:31;;;;;;;78.40;13.90;;;;;;;0.01;0.00;59042.03;5039907;28;20029;-53
2022/12/21 08:09:57;;;;;;;53.17;12.15;;;;;;;0.01;0.00;59042.03;5040708;28;20028;-52
2022/12/21 08:12:22;;;;;;;54.28;12.35;;;;;;;0.01;0.00;59042.03;5037186;28;20068;-54
2022/12/21 08:14:47;;;;;;;52.22;11.77;;;;;;;0.01;0.00;59042.03;5040086;28;20674;-53
2022/12/21 08:17:13;;;;;;;59.17;12.35;;;;;;;0.01;0.00;59042.03;5039555;28;20059;-54
2022/12/21 08:19:38;;;;;;;57.20;12.55;;;;;;;0.01;0.00;59042.03;5040062;28;20029;-55
2022/12/21 08:22:03;;;;;;;50.75;11.32;;;;;;;0.01;0.00;59042.03;5038438;28;20044;-54
2022/12/21 08:24:29;;;;;;;58.30;12.20;;;;;;;0.01;0.00;59042.03;5039872;28;20606;-53
2022/12/21 08:26:54;;;;;;;51.33;11.98;;;;;;;0.01;0.00;59042.03;5039302;28;20049;-53
2022/12/21 08:29:20;;;;;;;48.53;11.20;;;;;;;0.01;0.00;59042.03;5039871;28;20078;-53
2022/12/21 08:31:45;;;;;;;59.15;11.80;;;;;;;0.01;0.00;59042.03;5037850;28;20360;-53
2022/12/21 08:34:11;;;;;;;53.45;11.52;;;;;;;0.01;0.00;59042.03;5039928;28;20052;-53
2022/12/21 08:36:36;;;;;;;49.90;11.38;;;;;;;0.01;0.00;59042.03;5039558;28;20079;-54
2022/12/21 08:39:01;;;;;;;46.20;11.43;;;;;;;0.01;0.00;59042.03;5039585;28;20017;-54
2022/12/21 08:41:27;;;;;;;57.35;12.10;;;;;;;0.01;0.00;59042.03;5020178;28;20037;-53
2022/12/21 08:43:52;;;;;;;46.90;9.90;;;;;;;0.01;0.00;59042.03;5020741;28;20029;-53
2022/12/21 08:46:17;;;;;;;44.75;10.85;;;;;;;0.01;0.00;59042.03;5038380;28;20049;-53
2022/12/21 08:48:43;;;;;;;50.85;11.77;;;;;;;0.01;0.00;59042.03;5039967;28;20025;-53
2022/12/21 08:51:08;;;;;;;61.10;12.30;;;;;;;0.01;0.00;59042.03;5037717;28;20041;-53
2022/12/21 08:53:35;;;;;;;45.42;10.85;;;;;;;0.01;0.00;59042.03;5039641;28;20048;-53
2022/12/21 08:56:01;;;;;;;51.90;10.10;;;;;;;0.01;0.00;59042.03;5038755;28;20152;-55
2022/12/21 08:58:26;;;;;;;55.42;12.63;;;;;;;0.01;0.00;59042.03;5037806;28;20140;-53
2022/12/21 09:00:53;;;;;;;59.70;12.45;;;;;;;0.01;0.00;59042.03;5038096;28;20044;-54
2022/12/21 09:03:20;;;;;;;47.67;10.65;;;;;;;0.01;0.00;59042.03;5038382;28;20029;-53
2022/12/21 09:05:45;;;;;;;51.20;11.65;;;;;;;0.01;0.00;59042.03;5038158;28;20029;-56
2022/12/21 09:08:11;;;;;;;53.13;11.10;;;;;;;0.01;0.00;59042.03;5038752;28;20107;-54
2022/12/21 09:10:37;;;;;;;65.22;12.82;;;;;;;0.01;0.00;59042.03;5037974;28;20033;-54
2022/12/21 09:13:02;;;;;;;47.45;10.15;;;;;;;0.01;0.00;59042.03;5036728;28;20029;-57
2022/12/21 09:15:27;;;;;;;47.78;11.13;;;;;;;0.01;0.00;59042.03;5038509;28;20060;-56
2022/12/21 09:17:53;;;;;;;52.40;12.15;;;;;;;0.01;0.00;59042.03;5039054;28;20386;-55
2022/12/21 09:20:18;;;;;;;64.97;12.70;;;;;;;0.01;0.00;59042.03;5038664;28;20086;-53
2022/12/21 09:22:43;;;;;;;35.75;9.98;;;;;;;0.01;0.00;59042.03;5037887;28;20056;-54
2022/12/21 09:25:09;;;;;;;50.28;10.57;;;;;;;0.01;0.00;59042.03;5038449;28;20024;-54
2022/12/21 09:27:34;;;;;;;47.65;10.90;;;;;;;0.01;0.00;59042.03;5038579;28;20107;-54
2022/12/21 09:30:00;;;;;;;43.75;9.63;;;;;;;0.01;0.00;59042.03;5038464;28;20029;-54
2022/12/21 09:32:25;;;;;;;56.65;11.48;;;;;;;0.01;0.00;59042.03;5036542;28;20120;-54
2022/12/21 09:34:51;;;;;;;47.90;12.23;;;;;;;0.01;0.00;59042.03;5038693;28;20363;-55
2022/12/21 09:37:17;;;;;;;34.63;9.25;;;;;;;0.01;0.00;59042.03;5038132;28;20964;-54
2022/12/21 09:39:43;;;;;;;59.33;13.02;;;;;;;0.01;0.00;59042.03;5038481;28;20036;-53
2022/12/21 09:42:36;;;;;;;41.17;11.27;;;;;;;0.01;0.00;59042.03;5036940;28;20118;-54
2022/12/21 09:45:11;;;;;;;43.20;9.75;;;;;;;0.01;0.00;59042.03;5038404;28;20111;-54
2022/12/21 09:47:53;;;;;;;56.03;12.20;;;;;;;0.01;0.00;59042.03;5037941;28;20041;-55
2022/12/21 09:50:23;;;;;;;60.83;11.23;;;;;;;0.01;0.00;59042.03;5037865;28;20078;-54
2022/12/21 09:53:11;;;;;;;56.25;10.88;;;;;;;0.01;0.00;59042.03;5036991;28;20523;-53
2022/12/21 09:55:43;;;;;;;86.63;11.77;;;;;;;0.01;0.00;59042.03;5038112;28;20041;-54
2022/12/21 09:58:11;;;;;;;;;;;;;;;0.01;0.00;59042.03;5038915;28;20079;-55
2022/12/21 10:00:38;;;;;;;54.63;10.50;;;;;;;0.01;0.00;59042.03;5036966;28;19923;-54
2022/12/21 10:03:06;;;;;;;51.22;10.02;;;;;;;0.01;0.00;59042.03;5037152;28;20028;-54
2022/12/21 10:05:50;;;;;;;48.88;11.15;;;;;;;0.01;0.00;59042.03;5037562;28;20037;-53
2022/12/21 10:08:43;;;;;;;44.38;10.35;;;;;;;0.01;0.00;59042.03;5038248;28;20514;-55
2022/12/21 10:11:17;;;;;;;104.93;13.60;;;;;;;0.01;0.00;59042.03;5035099;28;20530;-54
2022/12/21 10:14:12;;;;;;;46.88;10.30;;;;;;;0.01;0.00;59042.03;5037758;28;20025;-54
2022/12/21 10:17:09;;;;;;;45.90;10.25;;;;;;;0.01;0.00;59042.03;5037286;28;20041;-55
2022/12/21 10:20:21;;;;;;;48.83;9.88;;;;;;;0.01;0.00;59042.03;5037189;28;20025;-56
2022/12/21 10:22:48;;;;;;;48.80;10.82;;;;;;;0.01;0.00;59042.03;5036383;28;20045;-54
2022/12/21 10:25:26;;;;;;;53.88;10.82;;;;;;;0.01;0.00;59042.03;5037127;28;20098;-53
2022/12/21 10:28:00;;;;;;;43.45;10.05;;;;;;;0.01;0.00;59042.03;5037962;28;20090;-53
2022/12/21 10:30:25;;;;;;;46.72;10.63;;;;;;;0.01;0.00;59042.03;5037159;28;20032;-54
2022/12/21 10:32:51;;;;;;;49.40;10.18;;;;;;;0.01;0.00;59042.03;5036468;28;20036;-55
2022/12/21 10:35:36;;;;;;;49.58;10.25;;;;;;;0.01;0.00;59042.03;5036913;28;20131;-54
2022/12/21 10:38:12;;;;;;;46.10;10.50;;;;;;;0.01;0.00;59042.03;5038000;28;20036;-54
2022/12/21 10:40:38;;;;;;;64.90;11.45;;;;;;;0.01;0.00;59042.03;5036307;28;20029;-55
2022/12/21 10:43:03;;;;;;;49.13;11.32;;;;;;;0.01;0.00;59042.03;5037365;28;20035;-54
2022/12/21 10:45:28;;;;;;;61.78;11.00;;;;;;;0.01;0.00;59042.03;5037380;28;20412;-54
2022/12/21 10:47:54;;;;;;;54.63;11.65;;;;;;;0.01;0.00;59042.03;5037937;28;20036;-54
2022/12/21 10:50:32;;;;;;;60.67;11.50;;;;;;;0.01;0.00;59042.03;5037084;28;20032;-53
2022/12/21 10:52:59;;;;;;;50.15;9.77;;;;;;;0.01;0.00;59042.03;5036287;28;20029;-54
2022/12/21 10:55:32;;;;;;;57.70;10.63;;;;;;;0.01;0.00;59042.03;5036793;28;20025;-53
2022/12/21 10:58:00;;;;;;;42.45;10.50;;;;;;;0.01;0.00;59042.03;5037604;28;20036;-53
2022/12/21 11:00:26;;;;;;;49.35;10.35;;;;;;;0.01;0.00;59042.03;5035979;28;20060;-54
2022/12/21 11:02:56;;;;;;;46.85;10.25;;;;;;;0.01;0.00;59042.03;5036388;28;20542;-54
2022/12/21 11:05:27;;;;;;;42.35;8.88;;;;;;;0.01;0.00;59042.03;5036500;28;20025;-55
2022/12/21 11:07:53;;;;;;;43.30;10.02;;;;;;;0.01;0.00;59042.03;5037792;28;20063;-55
2022/12/21 11:10:27;;;;;;;44.67;10.32;;;;;;;0.01;0.00;59042.03;5037064;28;20370;-55
2022/12/21 11:12:52;;;;;;;49.28;10.00;;;;;;;0.01;0.00;59042.03;5034746;28;20037;-55
2022/12/21 11:15:21;;;;;;;39.38;10.20;;;;;;;0.01;0.00;59042.03;5036695;28;20048;-55
2022/12/21 11:17:46;;;;;;;56.78;11.73;;;;;;;0.01;0.00;59042.03;5036656;28;20123;-53
2022/12/21 11:20:20;;;;;;;46.28;10.48;;;;;;;0.01;0.00;59042.03;5036649;28;20109;-54
2022/12/21 11:22:49;;;;;;;56.03;10.70;;;;;;;0.01;0.00;59042.03;5035794;28;20052;-53
2022/12/21 11:25:27;;;;;;;47.95;9.95;;;;;;;0.01;0.00;59042.03;5036542;28;20438;-53
2022/12/21 11:28:01;;;;;;;87.07;12.43;;;;;;;0.01;0.00;59042.03;5037034;28;20578;-55
2022/12/21 11:30:31;;;;;;;52.00;10.43;;;;;;;0.01;0.00;59042.03;5039664;28;20556;-55
2022/12/21 11:32:58;;;;;;;53.20;11.00;;;;;;;0.01;0.00;59042.03;5039298;28;20032;-55
2022/12/21 11:35:30;;;;;;;42.15;9.68;;;;;;;0.01;0.00;59042.03;5040849;28;20037;-55
2022/12/21 11:38:07;;;;;;;55.53;10.75;;;;;;;0.01;0.00;59042.03;5040139;28;20035;-54
2022/12/21 11:40:33;;;;;;;45.05;9.02;;;;;;;0.01;0.00;59042.03;5040029;28;20036;-53
2022/12/21 11:42:59;;;;;;;46.38;10.45;;;;;;;0.01;0.00;59042.03;5040290;28;20032;-55
2022/12/21 11:45:42;;;;;;;29.10;7.57;;;;;;;0.01;0.00;59042.03;5040184;28;20041;-57
2022/12/21 11:48:44;;;;;;;35.08;7.70;;;;;;;0.01;0.00;59042.03;5040400;28;20025;-55
2022/12/21 11:51:22;;;;;;;57.30;10.20;;;;;;;0.01;0.00;59042.03;5038865;28;20128;-54
2022/12/21 11:53:50;;;;;;;41.28;8.93;;;;;;;0.01;0.00;59042.03;5040264;28;20076;-53
2022/12/21 11:56:31;;;;;;;48.83;9.60;;;;;;;0.01;0.00;59042.03;5039426;28;20057;-53
2022/12/21 11:59:27;;;;;;;40.90;9.13;;;;;;;0.01;0.00;59042.03;5040353;28;20108;-53